sensor_id;sensor_type;location;lat;lon;timestamp;pressure;altitude;pressure_sealevel;temperature;humidity
21803;BME280;18591;47.080;22.214;2023-02-12T00:00:25;100808.25;;;5.62;46.85
21803;BME280;18591;47.080;22.214;2023-02-12T00:02:27;100806.47;;;5.51;47.35
21803;BME280;18591;47.080;22.214;2023-02-12T00:04:29;100809.16;;;5.64;47.26
21803;BME280;18591;47.080;22.214;2023-02-12T00:06:32;100795.81;;;5.67;47.05
21803;BME280;18591;47.080;22.214;2023-02-12T00:08:34;100806.50;;;5.61;47.34
21803;BME280;18591;47.080;22.214;2023-02-12T00:10:40;100809.13;;;5.57;47.32
21803;BME280;18591;47.080;22.214;2023-02-12T00:12:43;100797.59;;;5.64;47.31
21803;BME280;18591;47.080;22.214;2023-02-12T00:14:46;100794.94;;;5.64;47.59
21803;BME280;18591;47.080;22.214;2023-02-12T00:16:48;100790.53;;;5.71;47.28
21803;BME280;18591;47.080;22.214;2023-02-12T00:18:52;100785.16;;;5.72;47.33
21803;BME280;18591;47.080;22.214;2023-02-12T00:20:58;100795.81;;;5.64;47.42
21803;BME280;18591;47.080;22.214;2023-02-12T00:23:00;100802.06;;;5.71;47.17
21803;BME280;18591;47.080;22.214;2023-02-12T00:25:03;100793.16;;;5.72;47.18
21803;BME280;18591;47.080;22.214;2023-02-12T00:27:05;100790.53;;;5.71;47.39
21803;BME280;18591;47.080;22.214;2023-02-12T00:29:08;100791.41;;;5.71;46.96
21803;BME280;18591;47.080;22.214;2023-02-12T00:31:16;100790.53;;;5.71;47.04
21803;BME280;18591;47.080;22.214;2023-02-12T00:33:22;100796.72;;;5.70;47.28
21803;BME280;18591;47.080;22.214;2023-02-12T00:35:24;100799.38;;;5.70;47.14
21803;BME280;18591;47.080;22.214;2023-02-12T00:37:29;100805.59;;;5.58;47.33
21803;BME280;18591;47.080;22.214;2023-02-12T00:39:31;100801.13;;;5.52;47.98
21803;BME280;18591;47.080;22.214;2023-02-12T00:41:33;100793.16;;;5.58;47.48
21803;BME280;18591;47.080;22.214;2023-02-12T00:43:35;100794.03;;;5.65;47.36
21803;BME280;18591;47.080;22.214;2023-02-12T00:45:37;100799.38;;;5.65;47.48
21803;BME280;18591;47.080;22.214;2023-02-12T00:47:40;100794.97;;;5.65;47.47
21803;BME280;18591;47.080;22.214;2023-02-12T00:49:42;100787.84;;;5.71;47.11
21803;BME280;18591;47.080;22.214;2023-02-12T00:51:44;100782.50;;;5.67;47.36
21803;BME280;18591;47.080;22.214;2023-02-12T00:53:46;100800.28;;;5.61;47.46
21803;BME280;18591;47.080;22.214;2023-02-12T00:55:48;100801.16;;;5.61;47.37
21803;BME280;18591;47.080;22.214;2023-02-12T00:57:50;100793.16;;;5.64;47.49
21803;BME280;18591;47.080;22.214;2023-02-12T00:59:53;100792.28;;;5.64;47.40
21803;BME280;18591;47.080;22.214;2023-02-12T01:01:55;100794.06;;;5.68;47.42
21803;BME280;18591;47.080;22.214;2023-02-12T01:03:57;100794.03;;;5.62;47.65
21803;BME280;18591;47.080;22.214;2023-02-12T01:06:00;100799.38;;;5.65;47.73
21803;BME280;18591;47.080;22.214;2023-02-12T01:08:03;100778.94;;;5.67;47.60
21803;BME280;18591;47.080;22.214;2023-02-12T01:10:06;100788.72;;;5.65;47.69
21803;BME280;18591;47.080;22.214;2023-02-12T01:12:09;100783.41;;;5.68;47.45
21803;BME280;18591;47.080;22.214;2023-02-12T01:14:11;100790.50;;;5.69;47.33
21803;BME280;18591;47.080;22.214;2023-02-12T01:16:16;100797.63;;;5.65;47.54
21803;BME280;18591;47.080;22.214;2023-02-12T01:18:18;100811.84;;;5.63;47.84
21803;BME280;18591;47.080;22.214;2023-02-12T01:20:23;100806.50;;;5.61;47.23
21803;BME280;18591;47.080;22.214;2023-02-12T01:22:26;100809.16;;;5.64;47.68
21803;BME280;18591;47.080;22.214;2023-02-12T01:24:29;100810.06;;;5.63;47.47
21803;BME280;18591;47.080;22.214;2023-02-12T01:26:32;100806.50;;;5.64;47.59
21803;BME280;18591;47.080;22.214;2023-02-12T01:28:38;100816.25;;;5.62;47.60
21803;BME280;18591;47.080;22.214;2023-02-12T01:30:42;100822.50;;;5.63;47.51
21803;BME280;18591;47.080;22.214;2023-02-12T01:32:44;100816.25;;;5.58;47.93
21803;BME280;18591;47.080;22.214;2023-02-12T01:34:47;100821.59;;;5.56;47.90
21803;BME280;18591;47.080;22.214;2023-02-12T01:36:49;100816.25;;;5.56;47.68
21803;BME280;18591;47.080;22.214;2023-02-12T01:38:51;100811.81;;;5.55;48.14
21803;BME280;18591;47.080;22.214;2023-02-12T01:41:01;100810.91;;;5.52;47.80
21803;BME280;18591;47.080;22.214;2023-02-12T01:43:05;100821.56;;;5.45;48.23
21803;BME280;18591;47.080;22.214;2023-02-12T01:47:17;100821.56;;;5.49;48.08
21803;BME280;18591;47.080;22.214;2023-02-12T01:49:41;100815.34;;;5.45;48.56
21803;BME280;18591;47.080;22.214;2023-02-12T01:51:45;100819.78;;;5.51;48.50
21803;BME280;18591;47.080;22.214;2023-02-12T01:53:52;100824.19;;;5.47;48.57
21803;BME280;18591;47.080;22.214;2023-02-12T01:55:57;100813.53;;;5.47;48.40
21803;BME280;18591;47.080;22.214;2023-02-12T01:58:01;100808.22;;;5.45;48.78
21803;BME280;18591;47.080;22.214;2023-02-12T02:00:08;100808.22;;;5.47;48.46
21803;BME280;18591;47.080;22.214;2023-02-12T02:02:17;100813.53;;;5.47;48.72
21803;BME280;18591;47.080;22.214;2023-02-12T02:04:26;100811.78;;;5.49;48.57
21803;BME280;18591;47.080;22.214;2023-02-12T02:06:46;100810.91;;;5.49;48.66
21803;BME280;18591;47.080;22.214;2023-02-12T02:08:50;100807.34;;;5.50;48.55
21803;BME280;18591;47.080;22.214;2023-02-12T02:10:55;100803.78;;;5.49;48.74
21803;BME280;18591;47.080;22.214;2023-02-12T02:12:57;100813.53;;;5.44;48.86
21803;BME280;18591;47.080;22.214;2023-02-12T02:15:18;100811.78;;;5.46;48.66
21803;BME280;18591;47.080;22.214;2023-02-12T02:17:52;100810.88;;;5.38;48.78
21803;BME280;18591;47.080;22.214;2023-02-12T02:22:40;100810.84;;;5.36;48.72
21803;BME280;18591;47.080;22.214;2023-02-12T02:30:15;100809.09;;;5.40;49.21
21803;BME280;18591;47.080;22.214;2023-02-12T02:32:30;100797.50;;;5.32;49.26
21803;BME280;18591;47.080;22.214;2023-02-12T02:34:40;100804.63;;;5.36;49.47
21803;BME280;18591;47.080;22.214;2023-02-12T02:41:30;100811.75;;;5.35;49.26
21803;BME280;18591;47.080;22.214;2023-02-12T02:43:39;100817.09;;;5.35;49.42
21803;BME280;18591;47.080;22.214;2023-02-12T02:45:47;100817.09;;;5.43;49.38
21803;BME280;18591;47.080;22.214;2023-02-12T02:48:00;100825.97;;;5.37;49.46
21803;BME280;18591;47.080;22.214;2023-02-12T02:50:13;100825.94;;;5.33;49.46
21803;BME280;18591;47.080;22.214;2023-02-12T02:52:30;100825.94;;;5.34;49.46
21803;BME280;18591;47.080;22.214;2023-02-12T02:54:42;100831.25;;;5.31;49.68
21803;BME280;18591;47.080;22.214;2023-02-12T02:56:48;100830.41;;;5.35;49.23
21803;BME280;18591;47.080;22.214;2023-02-12T02:59:17;100829.47;;;5.32;49.74
21803;BME280;18591;47.080;22.214;2023-02-12T03:01:26;100835.72;;;5.35;49.19
21803;BME280;18591;47.080;22.214;2023-02-12T03:03:50;100839.25;;;5.31;49.84
21803;BME280;18591;47.080;22.214;2023-02-12T03:06:02;100840.13;;;5.32;49.93
21803;BME280;18591;47.080;22.214;2023-02-12T03:10:25;100838.34;;;5.29;49.97
21803;BME280;18591;47.080;22.214;2023-02-12T03:12:47;100833.94;;;5.30;49.81
21803;BME280;18591;47.080;22.214;2023-02-12T03:14:56;100843.72;;;5.34;49.87
21803;BME280;18591;47.080;22.214;2023-02-12T03:17:18;100842.81;;;5.27;50.38
21803;BME280;18591;47.080;22.214;2023-02-12T03:19:24;100857.91;;;5.34;49.71
21803;BME280;18591;47.080;22.214;2023-02-12T03:21:51;100854.34;;;5.26;50.24
21803;BME280;18591;47.080;22.214;2023-02-12T03:24:03;100855.25;;;5.30;50.33
21803;BME280;18591;47.080;22.214;2023-02-12T03:26:11;100861.47;;;5.30;50.35
21803;BME280;18591;47.080;22.214;2023-02-12T03:28:22;100852.59;;;5.31;49.95
21803;BME280;18591;47.080;22.214;2023-02-12T03:38:00;100861.47;;;5.24;50.72
21803;BME280;18591;47.080;22.214;2023-02-12T03:40:19;100862.31;;;5.23;50.60
21803;BME280;18591;47.080;22.214;2023-02-12T03:42:26;100860.53;;;5.27;50.42
21803;BME280;18591;47.080;22.214;2023-02-12T03:47:01;100864.13;;;5.24;50.73
21803;BME280;18591;47.080;22.214;2023-02-12T03:49:10;100876.53;;;5.23;50.97
21803;BME280;18591;47.080;22.214;2023-02-12T03:51:23;100868.56;;;5.22;51.12
21803;BME280;18591;47.080;22.214;2023-02-12T03:53:28;100872.13;;;5.27;50.74
21803;BME280;18591;47.080;22.214;2023-02-12T03:55:35;100871.22;;;5.27;50.63
21803;BME280;18591;47.080;22.214;2023-02-12T03:57:42;100868.53;;;5.27;50.70
21803;BME280;18591;47.080;22.214;2023-02-12T03:59:46;100873.00;;;5.29;50.61
21803;BME280;18591;47.080;22.214;2023-02-12T04:01:50;100875.66;;;5.26;50.60
21803;BME280;18591;47.080;22.214;2023-02-12T04:03:54;100885.44;;;5.29;50.87
21803;BME280;18591;47.080;22.214;2023-02-12T04:05:56;100877.47;;;5.27;50.68
21803;BME280;18591;47.080;22.214;2023-02-12T04:07:59;100881.88;;;5.27;50.84
21803;BME280;18591;47.080;22.214;2023-02-12T04:10:03;100884.56;;;5.28;50.74
21803;BME280;18591;47.080;22.214;2023-02-12T04:19:32;100896.03;;;5.18;51.22
21803;BME280;18591;47.080;22.214;2023-02-12T04:26:41;100889.81;;;5.13;51.15
21803;BME280;18591;47.080;22.214;2023-02-12T04:31:07;100897.81;;;5.17;51.16
21803;BME280;18591;47.080;22.214;2023-02-12T04:33:17;100904.03;;;5.18;50.83
21803;BME280;18591;47.080;22.214;2023-02-12T04:35:32;100899.59;;;5.14;51.00
21803;BME280;18591;47.080;22.214;2023-02-12T04:37:45;100900.47;;;5.16;51.10
21803;BME280;18591;47.080;22.214;2023-02-12T04:39:50;100899.63;;;5.20;51.16
21803;BME280;18591;47.080;22.214;2023-02-12T04:41:57;100904.03;;;5.18;51.08
21803;BME280;18591;47.080;22.214;2023-02-12T04:44:13;100905.81;;;5.14;51.39
21803;BME280;18591;47.080;22.214;2023-02-12T04:46:15;100906.72;;;5.21;50.90
21803;BME280;18591;47.080;22.214;2023-02-12T04:48:18;100912.03;;;5.21;50.56
21803;BME280;18591;47.080;22.214;2023-02-12T04:50:21;100921.81;;;5.19;50.91
21803;BME280;18591;47.080;22.214;2023-02-12T04:52:26;100912.94;;;5.23;50.82
21803;BME280;18591;47.080;22.214;2023-02-12T04:54:28;100919.16;;;5.22;50.63
21803;BME280;18591;47.080;22.214;2023-02-12T04:56:30;100920.03;;;5.18;50.99
21803;BME280;18591;47.080;22.214;2023-02-12T04:58:32;100924.47;;;5.17;50.95
21803;BME280;18591;47.080;22.214;2023-02-12T05:00:37;100932.47;;;5.19;50.89
21803;BME280;18591;47.080;22.214;2023-02-12T05:02:40;100933.34;;;5.18;51.39
21803;BME280;18591;47.080;22.214;2023-02-12T05:04:42;100932.44;;;5.16;50.79
21803;BME280;18591;47.080;22.214;2023-02-12T05:06:45;100942.25;;;5.20;50.92
21803;BME280;18591;47.080;22.214;2023-02-12T05:08:51;100944.91;;;5.17;50.87
21803;BME280;18591;47.080;22.214;2023-02-12T05:10:53;100947.56;;;5.17;50.79
21803;BME280;18591;47.080;22.214;2023-02-12T05:12:55;100945.81;;;5.19;51.11
21803;BME280;18591;47.080;22.214;2023-02-12T05:14:58;100951.13;;;5.19;51.03
21803;BME280;18591;47.080;22.214;2023-02-12T05:17:00;100964.41;;;5.14;51.34
21803;BME280;18591;47.080;22.214;2023-02-12T05:19:02;100972.41;;;5.14;51.46
21803;BME280;18591;47.080;22.214;2023-02-12T05:21:05;100970.63;;;5.15;51.41
21803;BME280;18591;47.080;22.214;2023-02-12T05:23:07;100971.53;;;5.15;51.36
21803;BME280;18591;47.080;22.214;2023-02-12T05:25:09;100976.88;;;5.18;51.29
21803;BME280;18591;47.080;22.214;2023-02-12T05:27:12;100983.06;;;5.16;51.66
21803;BME280;18591;47.080;22.214;2023-02-12T05:29:14;100976.84;;;5.15;51.46
21803;BME280;18591;47.080;22.214;2023-02-12T05:31:18;100976.88;;;5.17;51.70
21803;BME280;18591;47.080;22.214;2023-02-12T05:33:22;100981.28;;;5.13;51.42
21803;BME280;18591;47.080;22.214;2023-02-12T05:35:24;100977.72;;;5.13;51.60
21803;BME280;18591;47.080;22.214;2023-02-12T05:37:26;100983.94;;;5.15;52.11
21803;BME280;18591;47.080;22.214;2023-02-12T05:39:29;100989.25;;;5.13;51.84
21803;BME280;18591;47.080;22.214;2023-02-12T05:41:31;100983.94;;;5.15;51.57
21803;BME280;18591;47.080;22.214;2023-02-12T05:43:36;100987.50;;;5.15;51.67
21803;BME280;18591;47.080;22.214;2023-02-12T05:45:38;100993.72;;;5.11;51.88
21803;BME280;18591;47.080;22.214;2023-02-12T05:47:42;101000.81;;;5.12;52.15
21803;BME280;18591;47.080;22.214;2023-02-12T05:49:44;101012.34;;;5.13;51.87
21803;BME280;18591;47.080;22.214;2023-02-12T05:51:46;101009.69;;;5.11;52.28
21803;BME280;18591;47.080;22.214;2023-02-12T05:53:50;101013.25;;;5.13;51.93
21803;BME280;18591;47.080;22.214;2023-02-12T05:55:52;101018.59;;;5.15;51.73
21803;BME280;18591;47.080;22.214;2023-02-12T05:57:55;101025.69;;;5.13;52.27
21803;BME280;18591;47.080;22.214;2023-02-12T05:59:57;101031.00;;;5.13;52.04
21803;BME280;18591;47.080;22.214;2023-02-12T06:01:59;101029.22;;;5.12;51.90
21803;BME280;18591;47.080;22.214;2023-02-12T06:04:03;101029.25;;;5.15;52.11
21803;BME280;18591;47.080;22.214;2023-02-12T06:06:09;101037.25;;;5.15;51.56
21803;BME280;18591;47.080;22.214;2023-02-12T06:08:11;101044.31;;;5.13;51.79
21803;BME280;18591;47.080;22.214;2023-02-12T06:10:13;101042.53;;;5.13;52.40
21803;BME280;18591;47.080;22.214;2023-02-12T06:12:15;101049.66;;;5.13;52.04
21803;BME280;18591;47.080;22.214;2023-02-12T06:14:19;101042.56;;;5.12;51.94
21803;BME280;18591;47.080;22.214;2023-02-12T06:16:26;101054.09;;;5.12;52.18
21803;BME280;18591;47.080;22.214;2023-02-12T06:18:29;101048.75;;;5.11;51.88
21803;BME280;18591;47.080;22.214;2023-02-12T06:20:31;101046.06;;;5.11;52.07
21803;BME280;18591;47.080;22.214;2023-02-12T06:22:33;101054.09;;;5.12;52.06
21803;BME280;18591;47.080;22.214;2023-02-12T06:24:35;101048.78;;;5.14;51.80
21803;BME280;18591;47.080;22.214;2023-02-12T06:26:38;101062.09;;;5.12;51.70
21803;BME280;18591;47.080;22.214;2023-02-12T06:28:40;101054.06;;;5.11;51.74
21803;BME280;18591;47.080;22.214;2023-02-12T06:30:42;101061.19;;;5.13;51.99
21803;BME280;18591;47.080;22.214;2023-02-12T06:32:48;101064.72;;;5.09;51.59
21803;BME280;18591;47.080;22.214;2023-02-12T06:34:51;101070.97;;;5.16;51.47
21803;BME280;18591;47.080;22.214;2023-02-12T06:36:53;101077.22;;;5.15;51.57
21803;BME280;18591;47.080;22.214;2023-02-12T06:38:55;101075.44;;;5.18;51.68
21803;BME280;18591;47.080;22.214;2023-02-12T06:41:01;101084.34;;;5.19;51.63
21803;BME280;18591;47.080;22.214;2023-02-12T06:43:04;101086.13;;;5.20;51.64
21803;BME280;18591;47.080;22.214;2023-02-12T06:45:06;101083.44;;;5.18;51.59
21803;BME280;18591;47.080;22.214;2023-02-12T06:47:08;101093.22;;;5.18;51.62
21803;BME280;18591;47.080;22.214;2023-02-12T06:49:11;101092.34;;;5.19;51.78
21803;BME280;18591;47.080;22.214;2023-02-12T06:51:17;101094.09;;;5.17;51.76
21803;BME280;18591;47.080;22.214;2023-02-12T06:53:22;101107.44;;;5.20;52.03
21803;BME280;18591;47.080;22.214;2023-02-12T06:55:24;101110.06;;;5.15;52.56
21803;BME280;18591;47.080;22.214;2023-02-12T06:57:28;101098.53;;;5.15;52.55
21803;BME280;18591;47.080;22.214;2023-02-12T06:59:31;101105.63;;;5.16;52.74
21803;BME280;18591;47.080;22.214;2023-02-12T07:01:33;101114.53;;;5.16;52.52
21803;BME280;18591;47.080;22.214;2023-02-12T07:03:35;101112.81;;;5.21;52.42
21803;BME280;18591;47.080;22.214;2023-02-12T07:05:38;101109.22;;;5.21;52.35
21803;BME280;18591;47.080;22.214;2023-02-12T07:07:43;101114.56;;;5.19;52.33
21803;BME280;18591;47.080;22.214;2023-02-12T07:09:45;101116.34;;;5.23;52.62
21803;BME280;18591;47.080;22.214;2023-02-12T07:11:47;101120.81;;;5.21;52.09
21803;BME280;18591;47.080;22.214;2023-02-12T07:13:50;101131.41;;;5.18;52.19
21803;BME280;18591;47.080;22.214;2023-02-12T07:15:52;101135.00;;;5.23;51.70
21803;BME280;18591;47.080;22.214;2023-02-12T07:17:54;101135.03;;;5.27;51.91
21803;BME280;18591;47.080;22.214;2023-02-12T07:19:59;101134.13;;;5.21;51.84
21803;BME280;18591;47.080;22.214;2023-02-12T07:22:02;101139.47;;;5.29;51.61
21803;BME280;18591;47.080;22.214;2023-02-12T07:24:04;101159.16;;;5.40;51.42
21803;BME280;18591;47.080;22.214;2023-02-12T07:26:09;101156.53;;;5.45;51.04
21803;BME280;18591;47.080;22.214;2023-02-12T07:28:12;101158.28;;;5.43;51.13
21803;BME280;18591;47.080;22.214;2023-02-12T07:30:14;101154.81;;;5.53;50.67
21803;BME280;18591;47.080;22.214;2023-02-12T07:32:16;101162.75;;;5.45;50.91
21803;BME280;18591;47.080;22.214;2023-02-12T07:34:18;101163.56;;;5.38;50.88
21803;BME280;18591;47.080;22.214;2023-02-12T07:36:22;101162.78;;;5.52;50.31
21803;BME280;18591;47.080;22.214;2023-02-12T07:38:25;101164.59;;;5.54;49.49
21803;BME280;18591;47.080;22.214;2023-02-12T07:40:27;101175.28;;;5.56;50.36
21803;BME280;18591;47.080;22.214;2023-02-12T07:42:29;101170.81;;;5.53;50.33
21803;BME280;18591;47.080;22.214;2023-02-12T07:44:37;101178.66;;;5.39;50.95
21803;BME280;18591;47.080;22.214;2023-02-12T07:46:45;101168.09;;;5.49;50.49
21803;BME280;18591;47.080;22.214;2023-02-12T07:48:50;101168.16;;;5.56;50.53
21803;BME280;18591;47.080;22.214;2023-02-12T07:50:52;101164.59;;;5.54;50.75
21803;BME280;18591;47.080;22.214;2023-02-12T07:52:54;101161.97;;;5.59;50.59
21803;BME280;18591;47.080;22.214;2023-02-12T07:54:59;101157.59;;;5.67;50.64
21803;BME280;18591;47.080;22.214;2023-02-12T07:57:02;101146.91;;;5.64;50.34
21803;BME280;18591;47.080;22.214;2023-02-12T07:59:06;101154.81;;;5.53;50.89
21803;BME280;18591;47.080;22.214;2023-02-12T08:01:27;101154.66;;;5.36;51.35
21803;BME280;18591;47.080;22.214;2023-02-12T08:03:30;101163.75;;;5.58;50.59
21803;BME280;18591;47.080;22.214;2023-02-12T08:05:32;101179.88;;;5.75;50.67
21803;BME280;18591;47.080;22.214;2023-02-12T08:07:34;101174.59;;;5.83;50.02
21803;BME280;18591;47.080;22.214;2023-02-12T08:09:36;101181.69;;;5.82;50.56
21803;BME280;18591;47.080;22.214;2023-02-12T08:11:39;101179.97;;;5.90;50.04
21803;BME280;18591;47.080;22.214;2023-02-12T08:13:42;101189.00;;;5.99;50.39
21803;BME280;18591;47.080;22.214;2023-02-12T08:15:45;101180.97;;;6.00;50.29
21803;BME280;18591;47.080;22.214;2023-02-12T08:17:47;101209.44;;;6.03;49.98
21803;BME280;18591;47.080;22.214;2023-02-12T08:19:49;101199.69;;;6.08;50.16
21803;BME280;18591;47.080;22.214;2023-02-12T08:21:53;101207.75;;;6.13;50.23
21803;BME280;18591;47.080;22.214;2023-02-12T08:23:56;101197.03;;;6.08;50.35
21803;BME280;18591;47.080;22.214;2023-02-12T08:26:26;101194.41;;;6.16;50.12
21803;BME280;18591;47.080;22.214;2023-02-12T08:28:29;101205.16;;;6.25;49.83
21803;BME280;18591;47.080;22.214;2023-02-12T08:30:32;101191.84;;;6.29;49.73
21803;BME280;18591;47.080;22.214;2023-02-12T08:32:34;101205.13;;;6.20;49.83
21803;BME280;18591;47.080;22.214;2023-02-12T08:34:36;101206.97;;;6.30;49.85
21803;BME280;18591;47.080;22.214;2023-02-12T08:36:39;101217.69;;;6.35;49.58
21803;BME280;18591;47.080;22.214;2023-02-12T08:38:42;101209.69;;;6.41;49.53
21803;BME280;18591;47.080;22.214;2023-02-12T08:40:45;101215.06;;;6.43;49.92
21803;BME280;18591;47.080;22.214;2023-02-12T08:42:47;101210.63;;;6.48;50.03
21803;BME280;18591;47.080;22.214;2023-02-12T08:44:49;101203.53;;;6.58;49.60
21803;BME280;18591;47.080;22.214;2023-02-12T08:46:52;101201.78;;;6.63;49.96
21803;BME280;18591;47.080;22.214;2023-02-12T08:48:58;101196.47;;;6.67;50.21
21803;BME280;18591;47.080;22.214;2023-02-12T08:51:06;101194.69;;;6.66;50.21
21803;BME280;18591;47.080;22.214;2023-02-12T08:53:08;101195.59;;;6.71;50.74
21803;BME280;18591;47.080;22.214;2023-02-12T08:55:10;101199.22;;;6.81;50.29
21803;BME280;18591;47.080;22.214;2023-02-12T08:57:12;101210.78;;;6.91;50.13
21803;BME280;18591;47.080;22.214;2023-02-12T08:59:15;101203.69;;;6.93;49.92
21803;BME280;18591;47.080;22.214;2023-02-12T09:01:19;101208.16;;;6.98;49.69
21803;BME280;18591;47.080;22.214;2023-02-12T09:03:23;101208.16;;;7.03;49.89
21803;BME280;18591;47.080;22.214;2023-02-12T09:05:25;101226.03;;;7.10;49.49
21803;BME280;18591;47.080;22.214;2023-02-12T09:07:27;101234.06;;;7.12;48.80
21803;BME280;18591;47.080;22.214;2023-02-12T09:09:29;101230.50;;;7.17;49.06
21803;BME280;18591;47.080;22.214;2023-02-12T09:11:33;101238.50;;;7.16;48.78
21803;BME280;18591;47.080;22.214;2023-02-12T09:13:36;101244.75;;;7.24;48.97
21803;BME280;18591;47.080;22.214;2023-02-12T09:15:42;101250.13;;;7.32;48.50
21803;BME280;18591;47.080;22.214;2023-02-12T09:17:45;101242.13;;;7.33;48.69
21803;BME280;18591;47.080;22.214;2023-02-12T09:19:47;101243.03;;;7.38;48.85
21803;BME280;18591;47.080;22.214;2023-02-12T09:21:54;101233.22;;;7.42;48.16
21803;BME280;18591;47.080;22.214;2023-02-12T09:23:57;101241.28;;;7.53;48.50
21803;BME280;18591;47.080;22.214;2023-02-12T09:26:03;101245.72;;;7.49;48.19
21803;BME280;18591;47.080;22.214;2023-02-12T09:28:05;101245.72;;;7.52;48.37
21803;BME280;18591;47.080;22.214;2023-02-12T09:30:08;101247.53;;;7.61;48.02
21803;BME280;18591;47.080;22.214;2023-02-12T09:32:10;101248.41;;;7.68;48.14
21803;BME280;18591;47.080;22.214;2023-02-12T09:34:13;101249.31;;;7.71;48.05
21803;BME280;18591;47.080;22.214;2023-02-12T09:36:16;101235.06;;;7.78;47.82
21803;BME280;18591;47.080;22.214;2023-02-12T09:38:18;101227.91;;;7.77;48.20
21803;BME280;18591;47.080;22.214;2023-02-12T09:40:42;101227.03;;;7.78;48.75
21803;BME280;18591;47.080;22.214;2023-02-12T09:45:42;101237.75;;;7.86;47.86
21803;BME280;18591;47.080;22.214;2023-02-12T09:48:25;101238.59;;;7.80;47.83
21803;BME280;18591;47.080;22.214;2023-02-12T09:50:40;101257.34;;;7.90;47.64
21803;BME280;18591;47.080;22.214;2023-02-12T09:52:48;101265.38;;;8.00;48.27
21803;BME280;18591;47.080;22.214;2023-02-12T09:54:51;101266.28;;;8.02;48.10
21803;BME280;18591;47.080;22.214;2023-02-12T09:56:56;101260.03;;;8.00;48.12
21803;BME280;18591;47.080;22.214;2023-02-12T09:59:00;101265.38;;;8.03;48.30
21803;BME280;18591;47.080;22.214;2023-02-12T10:01:12;101259.13;;;8.01;47.68
21803;BME280;18591;47.080;22.214;2023-02-12T10:03:16;101260.94;;;8.07;47.73
21803;BME280;18591;47.080;22.214;2023-02-12T10:05:31;101257.31;;;8.06;48.11
21803;BME280;18591;47.080;22.214;2023-02-12T10:13:06;101252.00;;;8.17;48.01
21803;BME280;18591;47.080;22.214;2023-02-12T10:16:02;101249.28;;;8.34;48.83
21803;BME280;18591;47.080;22.214;2023-02-12T10:20:45;101258.22;;;8.52;47.81
21803;BME280;18591;47.080;22.214;2023-02-12T10:25:50;101267.06;;;8.70;48.76
21803;BME280;18591;47.080;22.214;2023-02-12T10:28:00;101272.41;;;8.78;48.00
21803;BME280;18591;47.080;22.214;2023-02-12T10:33:00;101266.16;;;8.81;47.39
21803;BME280;18591;47.080;22.214;2023-02-12T10:35:16;101271.50;;;8.81;47.88
21803;BME280;18591;47.080;22.214;2023-02-12T10:38:22;101258.09;;;8.90;48.11
21803;BME280;18591;47.080;22.214;2023-02-12T10:39:57;101264.34;;;8.87;48.10
21803;BME280;18591;47.080;22.214;2023-02-12T10:42:38;101259.00;;;8.87;48.01
21803;BME280;18591;47.080;22.214;2023-02-12T10:44:45;101274.16;;;8.98;48.03
21803;BME280;18591;47.080;22.214;2023-02-12T10:46:47;101272.34;;;9.01;48.00
21803;BME280;18591;47.080;22.214;2023-02-12T10:48:52;101267.88;;;9.00;47.63
21803;BME280;18591;47.080;22.214;2023-02-12T10:53:21;101266.13;;;8.94;47.42
21803;BME280;18591;47.080;22.214;2023-02-12T10:55:26;101270.59;;;8.92;47.47
21803;BME280;18591;47.080;22.214;2023-02-12T10:57:30;101271.44;;;9.02;48.07
21803;BME280;18591;47.080;22.214;2023-02-12T10:59:32;101272.28;;;9.13;48.25
21803;BME280;18591;47.080;22.214;2023-02-12T11:01:37;101266.03;;;9.13;47.51
21803;BME280;18591;47.080;22.214;2023-02-12T11:03:40;101266.94;;;9.10;47.58
21803;BME280;18591;47.080;22.214;2023-02-12T11:05:43;101268.75;;;9.10;47.91
21803;BME280;18591;47.080;22.214;2023-02-12T11:07:47;101274.06;;;9.16;48.43
21803;BME280;18591;47.080;22.214;2023-02-12T11:09:52;101270.44;;;9.25;47.99
21803;BME280;18591;47.080;22.214;2023-02-12T11:11:56;101277.59;;;9.24;47.95
21803;BME280;18591;47.080;22.214;2023-02-12T11:14:05;101278.47;;;9.31;47.70
21803;BME280;18591;47.080;22.214;2023-02-12T11:16:08;101285.53;;;9.43;47.96
21803;BME280;18591;47.080;22.214;2023-02-12T11:18:24;101281.09;;;9.43;47.51
21803;BME280;18591;47.080;22.214;2023-02-12T11:20:29;101281.03;;;9.48;47.66
21803;BME280;18591;47.080;22.214;2023-02-12T11:22:34;101278.38;;;9.45;47.51
21803;BME280;18591;47.080;22.214;2023-02-12T11:24:37;101282.91;;;9.38;47.76
21803;BME280;18591;47.080;22.214;2023-02-12T11:26:39;101286.44;;;9.42;47.36
21803;BME280;18591;47.080;22.214;2023-02-12T11:31:01;101288.19;;;9.47;47.57
21803;BME280;18591;47.080;22.214;2023-02-12T11:33:32;101281.91;;;9.53;47.40
21803;BME280;18591;47.080;22.214;2023-02-12T11:35:35;101283.69;;;9.57;47.25
21803;BME280;18591;47.080;22.214;2023-02-12T11:37:42;101285.47;;;9.55;46.99
21803;BME280;18591;47.080;22.214;2023-02-12T11:39:47;101281.94;;;9.51;47.17
21803;BME280;18591;47.080;22.214;2023-02-12T11:41:54;101281.03;;;9.49;46.63
21803;BME280;18591;47.080;22.214;2023-02-12T11:44:00;101290.88;;;9.49;46.63
21803;BME280;18591;47.080;22.214;2023-02-12T11:46:03;101288.19;;;9.52;46.92
21803;BME280;18591;47.080;22.214;2023-02-12T11:48:20;101285.53;;;9.49;46.62
21803;BME280;18591;47.080;22.214;2023-02-12T11:50:27;101282.75;;;9.58;46.90
21803;BME280;18591;47.080;22.214;2023-02-12T11:52:32;101274.78;;;9.53;46.89
21803;BME280;18591;47.080;22.214;2023-02-12T11:54:41;101280.13;;;9.52;46.59
21803;BME280;18591;47.080;22.214;2023-02-12T11:56:47;101282.84;;;9.47;47.00
21803;BME280;18591;47.080;22.214;2023-02-12T11:58:50;101278.31;;;9.55;47.23
21803;BME280;18591;47.080;22.214;2023-02-12T12:01:10;101289.09;;;9.51;45.98